sensor_id;sensor_type;location;lat;lon;timestamp;P1;durP1;ratioP1;P2;durP2;ratioP2
22034;SDS011;11181;51.002;4.356;2023-04-21T00:00:57;10.40;;;7.87;;
22034;SDS011;11181;51.002;4.356;2023-04-21T00:03:24;9.23;;;7.93;;
22034;SDS011;11181;51.002;4.356;2023-04-21T00:05:52;9.43;;;7.37;;
22034;SDS011;11181;51.002;4.356;2023-04-21T00:08:22;8.87;;;7.50;;
22034;SDS011;11181;51.002;4.356;2023-04-21T00:10:50;7.80;;;6.60;;
22034;SDS011;11181;51.002;4.356;2023-04-21T00:13:18;9.47;;;7.33;;
22034;SDS011;11181;51.002;4.356;2023-04-21T00:15:45;10.60;;;7.47;;
22034;SDS011;11181;51.002;4.356;2023-04-21T00:18:12;8.50;;;7.27;;
22034;SDS011;11181;51.002;4.356;2023-04-21T00:20:39;10.13;;;8.03;;
22034;SDS011;11181;51.002;4.356;2023-04-21T00:23:06;9.30;;;7.57;;
22034;SDS011;11181;51.002;4.356;2023-04-21T00:25:35;10.80;;;8.60;;
22034;SDS011;11181;51.002;4.356;2023-04-21T00:28:02;9.03;;;7.70;;
22034;SDS011;11181;51.002;4.356;2023-04-21T00:30:30;8.50;;;7.57;;
22034;SDS011;11181;51.002;4.356;2023-04-21T00:32:57;10.37;;;7.80;;
22034;SDS011;11181;51.002;4.356;2023-04-21T00:35:24;9.80;;;8.03;;
22034;SDS011;11181;51.002;4.356;2023-04-21T00:37:51;9.37;;;8.17;;
22034;SDS011;11181;51.002;4.356;2023-04-21T00:40:18;9.30;;;8.17;;
22034;SDS011;11181;51.002;4.356;2023-04-21T00:42:45;10.20;;;7.80;;
22034;SDS011;11181;51.002;4.356;2023-04-21T00:45:12;12.23;;;8.33;;
22034;SDS011;11181;51.002;4.356;2023-04-21T00:47:41;11.07;;;8.63;;
22034;SDS011;11181;51.002;4.356;2023-04-21T00:50:08;9.40;;;8.40;;
22034;SDS011;11181;51.002;4.356;2023-04-21T00:52:38;9.93;;;8.30;;
22034;SDS011;11181;51.002;4.356;2023-04-21T00:55:06;9.90;;;7.90;;
22034;SDS011;11181;51.002;4.356;2023-04-21T00:57:34;12.40;;;9.47;;
22034;SDS011;11181;51.002;4.356;2023-04-21T01:00:02;10.83;;;8.90;;
22034;SDS011;11181;51.002;4.356;2023-04-21T01:02:33;11.63;;;9.27;;
22034;SDS011;11181;51.002;4.356;2023-04-21T01:05:04;10.90;;;9.50;;
22034;SDS011;11181;51.002;4.356;2023-04-21T01:07:33;11.33;;;9.70;;
22034;SDS011;11181;51.002;4.356;2023-04-21T01:10:00;12.40;;;9.53;;
22034;SDS011;11181;51.002;4.356;2023-04-21T01:12:27;10.90;;;9.60;;
22034;SDS011;11181;51.002;4.356;2023-04-21T01:14:54;13.40;;;10.33;;
22034;SDS011;11181;51.002;4.356;2023-04-21T01:17:21;13.10;;;10.60;;
22034;SDS011;11181;51.002;4.356;2023-04-21T01:19:48;13.73;;;11.83;;
22034;SDS011;11181;51.002;4.356;2023-04-21T01:22:17;15.33;;;11.50;;
22034;SDS011;11181;51.002;4.356;2023-04-21T01:24:45;14.20;;;10.67;;
22034;SDS011;11181;51.002;4.356;2023-04-21T01:27:13;13.07;;;10.20;;
22034;SDS011;11181;51.002;4.356;2023-04-21T01:29:43;13.10;;;10.30;;
22034;SDS011;11181;51.002;4.356;2023-04-21T01:32:13;19.03;;;12.03;;
22034;SDS011;11181;51.002;4.356;2023-04-21T01:34:41;16.23;;;11.60;;
22034;SDS011;11181;51.002;4.356;2023-04-21T01:37:08;14.97;;;11.20;;
22034;SDS011;11181;51.002;4.356;2023-04-21T01:39:37;13.97;;;11.37;;
22034;SDS011;11181;51.002;4.356;2023-04-21T01:42:04;13.97;;;11.10;;
22034;SDS011;11181;51.002;4.356;2023-04-21T01:44:32;15.97;;;10.97;;
22034;SDS011;11181;51.002;4.356;2023-04-21T01:47:00;18.23;;;13.57;;
22034;SDS011;11181;51.002;4.356;2023-04-21T01:49:27;15.33;;;11.87;;
22034;SDS011;11181;51.002;4.356;2023-04-21T01:51:54;15.50;;;12.83;;
22034;SDS011;11181;51.002;4.356;2023-04-21T01:54:21;16.70;;;13.33;;
22034;SDS011;11181;51.002;4.356;2023-04-21T01:56:50;18.00;;;13.93;;
22034;SDS011;11181;51.002;4.356;2023-04-21T01:59:17;18.70;;;13.13;;
22034;SDS011;11181;51.002;4.356;2023-04-21T02:01:44;20.10;;;13.73;;
22034;SDS011;11181;51.002;4.356;2023-04-21T02:04:11;19.17;;;14.63;;
22034;SDS011;11181;51.002;4.356;2023-04-21T02:06:38;18.67;;;14.57;;
22034;SDS011;11181;51.002;4.356;2023-04-21T02:09:05;21.60;;;16.43;;
22034;SDS011;11181;51.002;4.356;2023-04-21T02:11:32;22.27;;;17.03;;
22034;SDS011;11181;51.002;4.356;2023-04-21T02:14:00;22.13;;;16.70;;
22034;SDS011;11181;51.002;4.356;2023-04-21T02:16:27;22.90;;;16.63;;
22034;SDS011;11181;51.002;4.356;2023-04-21T02:18:54;19.30;;;15.47;;
22034;SDS011;11181;51.002;4.356;2023-04-21T02:21:22;23.20;;;17.50;;
22034;SDS011;11181;51.002;4.356;2023-04-21T02:23:49;24.20;;;17.43;;
22034;SDS011;11181;51.002;4.356;2023-04-21T02:26:17;22.00;;;16.50;;
22034;SDS011;11181;51.002;4.356;2023-04-21T02:28:44;24.87;;;17.17;;
22034;SDS011;11181;51.002;4.356;2023-04-21T02:31:12;23.97;;;16.67;;
22034;SDS011;11181;51.002;4.356;2023-04-21T02:33:39;26.67;;;19.70;;
22034;SDS011;11181;51.002;4.356;2023-04-21T02:36:06;21.73;;;16.43;;
22034;SDS011;11181;51.002;4.356;2023-04-21T02:38:33;24.30;;;17.30;;
22034;SDS011;11181;51.002;4.356;2023-04-21T02:41:00;23.20;;;17.17;;
22034;SDS011;11181;51.002;4.356;2023-04-21T02:43:27;25.53;;;18.90;;
22034;SDS011;11181;51.002;4.356;2023-04-21T02:45:54;27.57;;;19.43;;
22034;SDS011;11181;51.002;4.356;2023-04-21T02:48:22;25.37;;;19.33;;
22034;SDS011;11181;51.002;4.356;2023-04-21T02:50:51;26.53;;;19.03;;
22034;SDS011;11181;51.002;4.356;2023-04-21T02:53:18;25.70;;;18.30;;
22034;SDS011;11181;51.002;4.356;2023-04-21T02:55:45;25.23;;;18.93;;
22034;SDS011;11181;51.002;4.356;2023-04-21T02:58:11;28.50;;;19.73;;
22034;SDS011;11181;51.002;4.356;2023-04-21T03:00:38;29.57;;;19.27;;
22034;SDS011;11181;51.002;4.356;2023-04-21T03:03:05;26.73;;;19.20;;
22034;SDS011;11181;51.002;4.356;2023-04-21T03:05:34;26.17;;;19.67;;
22034;SDS011;11181;51.002;4.356;2023-04-21T03:08:00;29.50;;;20.00;;
22034;SDS011;11181;51.002;4.356;2023-04-21T03:10:28;27.37;;;19.17;;
22034;SDS011;11181;51.002;4.356;2023-04-21T03:12:55;26.50;;;19.53;;
22034;SDS011;11181;51.002;4.356;2023-04-21T03:15:21;31.47;;;20.53;;
22034;SDS011;11181;51.002;4.356;2023-04-21T03:17:48;24.77;;;18.27;;
22034;SDS011;11181;51.002;4.356;2023-04-21T03:20:15;29.57;;;19.70;;
22034;SDS011;11181;51.002;4.356;2023-04-21T03:22:44;25.97;;;19.80;;
22034;SDS011;11181;51.002;4.356;2023-04-21T03:25:10;26.43;;;19.67;;
22034;SDS011;11181;51.002;4.356;2023-04-21T03:27:37;28.17;;;19.77;;
22034;SDS011;11181;51.002;4.356;2023-04-21T03:30:05;25.10;;;18.70;;
22034;SDS011;11181;51.002;4.356;2023-04-21T03:32:32;26.70;;;20.50;;
22034;SDS011;11181;51.002;4.356;2023-04-21T03:34:59;26.93;;;20.30;;
22034;SDS011;11181;51.002;4.356;2023-04-21T03:37:26;27.77;;;19.53;;
22034;SDS011;11181;51.002;4.356;2023-04-21T03:39:54;27.73;;;20.43;;
22034;SDS011;11181;51.002;4.356;2023-04-21T03:42:21;30.43;;;20.20;;
22034;SDS011;11181;51.002;4.356;2023-04-21T03:44:49;26.40;;;19.13;;
22034;SDS011;11181;51.002;4.356;2023-04-21T03:47:19;25.77;;;19.30;;
22034;SDS011;11181;51.002;4.356;2023-04-21T03:49:46;26.53;;;19.10;;
22034;SDS011;11181;51.002;4.356;2023-04-21T03:52:13;27.63;;;19.73;;
22034;SDS011;11181;51.002;4.356;2023-04-21T03:54:40;28.33;;;20.93;;
22034;SDS011;11181;51.002;4.356;2023-04-21T03:57:08;26.90;;;21.03;;
22034;SDS011;11181;51.002;4.356;2023-04-21T03:59:35;27.27;;;21.10;;
22034;SDS011;11181;51.002;4.356;2023-04-21T04:02:02;26.60;;;20.53;;
22034;SDS011;11181;51.002;4.356;2023-04-21T04:04:29;28.03;;;21.53;;
22034;SDS011;11181;51.002;4.356;2023-04-21T04:06:56;29.97;;;21.23;;
22034;SDS011;11181;51.002;4.356;2023-04-21T04:09:23;27.27;;;19.83;;
22034;SDS011;11181;51.002;4.356;2023-04-21T04:11:50;30.47;;;22.10;;
22034;SDS011;11181;51.002;4.356;2023-04-21T04:14:18;29.17;;;21.27;;
22034;SDS011;11181;51.002;4.356;2023-04-21T04:16:45;27.90;;;19.87;;
22034;SDS011;11181;51.002;4.356;2023-04-21T04:19:12;29.57;;;19.77;;
22034;SDS011;11181;51.002;4.356;2023-04-21T04:21:40;28.53;;;20.37;;
22034;SDS011;11181;51.002;4.356;2023-04-21T04:24:06;29.37;;;20.37;;
22034;SDS011;11181;51.002;4.356;2023-04-21T04:26:35;27.20;;;20.80;;
22034;SDS011;11181;51.002;4.356;2023-04-21T04:29:02;29.37;;;21.27;;
22034;SDS011;11181;51.002;4.356;2023-04-21T04:31:35;27.20;;;19.93;;
22034;SDS011;11181;51.002;4.356;2023-04-21T04:34:03;30.53;;;20.87;;
22034;SDS011;11181;51.002;4.356;2023-04-21T04:36:30;27.20;;;19.97;;
22034;SDS011;11181;51.002;4.356;2023-04-21T04:38:58;29.47;;;21.43;;
22034;SDS011;11181;51.002;4.356;2023-04-21T04:41:24;29.30;;;20.53;;
22034;SDS011;11181;51.002;4.356;2023-04-21T04:43:51;28.70;;;21.33;;
22034;SDS011;11181;51.002;4.356;2023-04-21T04:46:18;28.47;;;21.20;;
22034;SDS011;11181;51.002;4.356;2023-04-21T04:48:46;31.50;;;20.40;;
22034;SDS011;11181;51.002;4.356;2023-04-21T04:51:13;27.60;;;20.80;;
22034;SDS011;11181;51.002;4.356;2023-04-21T04:53:41;27.23;;;19.77;;
22034;SDS011;11181;51.002;4.356;2023-04-21T04:56:08;27.73;;;20.90;;
22034;SDS011;11181;51.002;4.356;2023-04-21T04:58:35;29.80;;;19.77;;
22034;SDS011;11181;51.002;4.356;2023-04-21T05:01:09;28.93;;;20.33;;
22034;SDS011;11181;51.002;4.356;2023-04-21T05:03:37;26.97;;;20.17;;
22034;SDS011;11181;51.002;4.356;2023-04-21T05:06:05;29.50;;;20.50;;
22034;SDS011;11181;51.002;4.356;2023-04-21T05:08:33;27.90;;;20.33;;
22034;SDS011;11181;51.002;4.356;2023-04-21T05:11:00;29.40;;;20.73;;
22034;SDS011;11181;51.002;4.356;2023-04-21T05:13:27;28.30;;;20.43;;
22034;SDS011;11181;51.002;4.356;2023-04-21T05:15:55;26.30;;;19.87;;
22034;SDS011;11181;51.002;4.356;2023-04-21T05:18:23;27.90;;;21.30;;
22034;SDS011;11181;51.002;4.356;2023-04-21T05:20:50;29.70;;;20.30;;
22034;SDS011;11181;51.002;4.356;2023-04-21T05:23:18;28.67;;;19.97;;
22034;SDS011;11181;51.002;4.356;2023-04-21T05:25:45;26.13;;;19.63;;
22034;SDS011;11181;51.002;4.356;2023-04-21T05:28:14;27.50;;;19.83;;
22034;SDS011;11181;51.002;4.356;2023-04-21T05:30:41;29.13;;;19.80;;
22034;SDS011;11181;51.002;4.356;2023-04-21T05:33:08;31.67;;;20.37;;
22034;SDS011;11181;51.002;4.356;2023-04-21T05:35:35;27.70;;;21.10;;
22034;SDS011;11181;51.002;4.356;2023-04-21T05:38:02;26.40;;;19.47;;
22034;SDS011;11181;51.002;4.356;2023-04-21T05:40:30;28.03;;;20.93;;
22034;SDS011;11181;51.002;4.356;2023-04-21T05:42:57;31.03;;;21.80;;
22034;SDS011;11181;51.002;4.356;2023-04-21T05:45:24;28.23;;;19.50;;
22034;SDS011;11181;51.002;4.356;2023-04-21T05:47:51;28.87;;;20.33;;
22034;SDS011;11181;51.002;4.356;2023-04-21T05:50:18;25.97;;;19.03;;
22034;SDS011;11181;51.002;4.356;2023-04-21T05:52:45;34.53;;;20.87;;
22034;SDS011;11181;51.002;4.356;2023-04-21T05:55:12;28.37;;;19.80;;
22034;SDS011;11181;51.002;4.356;2023-04-21T05:57:40;29.30;;;19.90;;
22034;SDS011;11181;51.002;4.356;2023-04-21T06:00:07;27.00;;;18.97;;
22034;SDS011;11181;51.002;4.356;2023-04-21T06:02:35;29.53;;;20.07;;
22034;SDS011;11181;51.002;4.356;2023-04-21T06:05:02;26.77;;;19.73;;
22034;SDS011;11181;51.002;4.356;2023-04-21T06:07:29;26.97;;;18.90;;
22034;SDS011;11181;51.002;4.356;2023-04-21T06:09:56;28.03;;;19.10;;
22034;SDS011;11181;51.002;4.356;2023-04-21T06:12:23;25.50;;;18.57;;
22034;SDS011;11181;51.002;4.356;2023-04-21T06:14:51;29.47;;;19.33;;
22034;SDS011;11181;51.002;4.356;2023-04-21T06:17:21;24.80;;;17.27;;
22034;SDS011;11181;51.002;4.356;2023-04-21T06:19:48;25.00;;;17.80;;
22034;SDS011;11181;51.002;4.356;2023-04-21T06:22:17;26.83;;;18.27;;
22034;SDS011;11181;51.002;4.356;2023-04-21T06:24:45;28.03;;;18.93;;
22034;SDS011;11181;51.002;4.356;2023-04-21T06:27:11;31.27;;;19.70;;
22034;SDS011;11181;51.002;4.356;2023-04-21T06:29:39;26.67;;;19.10;;
22034;SDS011;11181;51.002;4.356;2023-04-21T06:32:08;26.10;;;17.77;;
22034;SDS011;11181;51.002;4.356;2023-04-21T06:34:35;24.13;;;17.13;;
22034;SDS011;11181;51.002;4.356;2023-04-21T06:37:02;24.23;;;16.50;;
22034;SDS011;11181;51.002;4.356;2023-04-21T06:39:29;23.27;;;16.90;;
22034;SDS011;11181;51.002;4.356;2023-04-21T06:41:56;24.13;;;17.00;;
22034;SDS011;11181;51.002;4.356;2023-04-21T06:44:23;27.87;;;19.07;;
22034;SDS011;11181;51.002;4.356;2023-04-21T06:46:50;22.60;;;15.67;;
22034;SDS011;11181;51.002;4.356;2023-04-21T06:49:18;25.57;;;16.63;;
22034;SDS011;11181;51.002;4.356;2023-04-21T06:51:45;23.27;;;15.93;;
22034;SDS011;11181;51.002;4.356;2023-04-21T06:54:12;23.50;;;16.27;;
22034;SDS011;11181;51.002;4.356;2023-04-21T06:56:38;22.07;;;14.33;;
22034;SDS011;11181;51.002;4.356;2023-04-21T06:59:06;20.13;;;14.80;;
22034;SDS011;11181;51.002;4.356;2023-04-21T07:01:34;21.07;;;14.77;;
22034;SDS011;11181;51.002;4.356;2023-04-21T07:04:01;19.90;;;13.73;;
22034;SDS011;11181;51.002;4.356;2023-04-21T07:06:29;19.67;;;14.03;;
22034;SDS011;11181;51.002;4.356;2023-04-21T07:08:57;20.70;;;15.13;;
22034;SDS011;11181;51.002;4.356;2023-04-21T07:11:24;19.03;;;14.47;;
22034;SDS011;11181;51.002;4.356;2023-04-21T07:13:52;22.10;;;15.73;;
22034;SDS011;11181;51.002;4.356;2023-04-21T07:16:19;19.67;;;14.20;;
22034;SDS011;11181;51.002;4.356;2023-04-21T07:18:46;18.77;;;13.33;;
22034;SDS011;11181;51.002;4.356;2023-04-21T07:21:13;20.33;;;13.90;;
22034;SDS011;11181;51.002;4.356;2023-04-21T07:23:41;17.03;;;12.13;;
22034;SDS011;11181;51.002;4.356;2023-04-21T07:26:08;19.57;;;14.10;;
22034;SDS011;11181;51.002;4.356;2023-04-21T07:28:35;17.93;;;13.00;;
22034;SDS011;11181;51.002;4.356;2023-04-21T07:31:03;18.60;;;13.60;;
22034;SDS011;11181;51.002;4.356;2023-04-21T07:33:30;17.57;;;12.47;;
22034;SDS011;11181;51.002;4.356;2023-04-21T07:35:57;14.27;;;11.30;;
22034;SDS011;11181;51.002;4.356;2023-04-21T07:38:24;16.13;;;11.83;;
22034;SDS011;11181;51.002;4.356;2023-04-21T07:40:52;14.90;;;11.63;;
22034;SDS011;11181;51.002;4.356;2023-04-21T07:43:19;15.33;;;11.73;;
22034;SDS011;11181;51.002;4.356;2023-04-21T07:45:46;16.67;;;11.93;;
22034;SDS011;11181;51.002;4.356;2023-04-21T07:48:13;14.20;;;10.90;;
22034;SDS011;11181;51.002;4.356;2023-04-21T07:50:39;14.17;;;10.73;;
22034;SDS011;11181;51.002;4.356;2023-04-21T07:53:06;12.53;;;10.57;;
22034;SDS011;11181;51.002;4.356;2023-04-21T07:55:33;15.30;;;11.37;;
22034;SDS011;11181;51.002;4.356;2023-04-21T07:58:02;14.27;;;11.57;;
22034;SDS011;11181;51.002;4.356;2023-04-21T08:00:29;14.77;;;11.23;;
22034;SDS011;11181;51.002;4.356;2023-04-21T08:02:56;14.17;;;10.60;;
22034;SDS011;11181;51.002;4.356;2023-04-21T08:05:23;14.67;;;11.43;;
22034;SDS011;11181;51.002;4.356;2023-04-21T08:07:50;12.70;;;10.03;;
22034;SDS011;11181;51.002;4.356;2023-04-21T08:10:18;15.27;;;11.00;;
22034;SDS011;11181;51.002;4.356;2023-04-21T08:12:44;13.57;;;10.73;;
22034;SDS011;11181;51.002;4.356;2023-04-21T08:15:13;12.87;;;10.30;;
22034;SDS011;11181;51.002;4.356;2023-04-21T08:17:40;14.17;;;11.20;;
22034;SDS011;11181;51.002;4.356;2023-04-21T08:20:07;12.53;;;9.87;;
22034;SDS011;11181;51.002;4.356;2023-04-21T08:22:34;13.83;;;11.13;;
22034;SDS011;11181;51.002;4.356;2023-04-21T08:25:01;11.03;;;9.53;;
22034;SDS011;11181;51.002;4.356;2023-04-21T08:27:28;13.57;;;10.53;;
22034;SDS011;11181;51.002;4.356;2023-04-21T08:29:55;12.27;;;9.50;;
22034;SDS011;11181;51.002;4.356;2023-04-21T08:32:25;9.70;;;8.07;;
22034;SDS011;11181;51.002;4.356;2023-04-21T08:34:52;11.30;;;8.80;;
22034;SDS011;11181;51.002;4.356;2023-04-21T08:37:20;9.73;;;8.53;;
22034;SDS011;11181;51.002;4.356;2023-04-21T08:39:47;11.83;;;9.13;;
22034;SDS011;11181;51.002;4.356;2023-04-21T08:42:15;9.93;;;8.80;;
22034;SDS011;11181;51.002;4.356;2023-04-21T08:44:43;10.80;;;8.80;;
22034;SDS011;11181;51.002;4.356;2023-04-21T08:47:10;9.53;;;8.50;;
22034;SDS011;11181;51.002;4.356;2023-04-21T08:49:40;12.40;;;9.37;;
22034;SDS011;11181;51.002;4.356;2023-04-21T08:52:09;9.87;;;8.47;;
22034;SDS011;11181;51.002;4.356;2023-04-21T08:54:38;11.40;;;8.83;;
22034;SDS011;11181;51.002;4.356;2023-04-21T08:57:06;11.97;;;8.63;;
22034;SDS011;11181;51.002;4.356;2023-04-21T08:59:33;11.80;;;9.63;;
22034;SDS011;11181;51.002;4.356;2023-04-21T09:02:07;9.50;;;8.50;;
22034;SDS011;11181;51.002;4.356;2023-04-21T09:04:36;12.00;;;8.93;;
22034;SDS011;11181;51.002;4.356;2023-04-21T09:07:05;11.03;;;8.87;;
22034;SDS011;11181;51.002;4.356;2023-04-21T09:09:33;13.10;;;9.47;;
22034;SDS011;11181;51.002;4.356;2023-04-21T09:12:16;11.87;;;10.07;;
22034;SDS011;11181;51.002;4.356;2023-04-21T09:14:43;14.20;;;9.50;;
22034;SDS011;11181;51.002;4.356;2023-04-21T09:17:10;9.73;;;8.57;;
22034;SDS011;11181;51.002;4.356;2023-04-21T09:19:37;10.40;;;8.67;;
22034;SDS011;11181;51.002;4.356;2023-04-21T09:22:05;9.17;;;8.23;;
22034;SDS011;11181;51.002;4.356;2023-04-21T09:24:32;10.67;;;9.40;;
22034;SDS011;11181;51.002;4.356;2023-04-21T09:27:01;11.20;;;9.70;;
22034;SDS011;11181;51.002;4.356;2023-04-21T09:29:29;9.97;;;8.97;;
22034;SDS011;11181;51.002;4.356;2023-04-21T09:31:56;11.57;;;9.07;;
22034;SDS011;11181;51.002;4.356;2023-04-21T09:34:23;10.30;;;9.20;;
22034;SDS011;11181;51.002;4.356;2023-04-21T09:36:57;9.03;;;7.53;;
22034;SDS011;11181;51.002;4.356;2023-04-21T09:39:26;9.33;;;7.90;;
22034;SDS011;11181;51.002;4.356;2023-04-21T09:41:54;9.30;;;7.93;;
22034;SDS011;11181;51.002;4.356;2023-04-21T09:44:22;8.70;;;7.67;;
22034;SDS011;11181;51.002;4.356;2023-04-21T09:46:50;10.80;;;8.53;;
22034;SDS011;11181;51.002;4.356;2023-04-21T09:49:22;9.33;;;7.30;;
22034;SDS011;11181;51.002;4.356;2023-04-21T09:51:53;8.73;;;7.33;;
22034;SDS011;11181;51.002;4.356;2023-04-21T09:54:21;9.23;;;8.30;;
22034;SDS011;11181;51.002;4.356;2023-04-21T09:56:57;12.47;;;7.67;;
22034;SDS011;11181;51.002;4.356;2023-04-21T09:59:28;10.93;;;7.97;;
22034;SDS011;11181;51.002;4.356;2023-04-21T10:01:58;8.40;;;7.03;;
22034;SDS011;11181;51.002;4.356;2023-04-21T10:04:26;8.73;;;7.13;;
22034;SDS011;11181;51.002;4.356;2023-04-21T10:06:56;8.80;;;7.17;;
22034;SDS011;11181;51.002;4.356;2023-04-21T10:09:26;9.57;;;7.40;;
22034;SDS011;11181;51.002;4.356;2023-04-21T10:11:58;8.97;;;7.23;;
22034;SDS011;11181;51.002;4.356;2023-04-21T10:14:26;7.97;;;7.17;;
22034;SDS011;11181;51.002;4.356;2023-04-21T10:16:57;7.57;;;6.13;;
22034;SDS011;11181;51.002;4.356;2023-04-21T10:19:29;6.97;;;5.87;;
22034;SDS011;11181;51.002;4.356;2023-04-21T10:22:00;7.00;;;6.00;;
22034;SDS011;11181;51.002;4.356;2023-04-21T10:24:29;6.63;;;5.63;;
22034;SDS011;11181;51.002;4.356;2023-04-21T10:26:56;6.73;;;5.80;;
22034;SDS011;11181;51.002;4.356;2023-04-21T10:29:29;9.90;;;6.77;;
22034;SDS011;11181;51.002;4.356;2023-04-21T10:31:58;6.70;;;6.10;;
22034;SDS011;11181;51.002;4.356;2023-04-21T10:34:28;7.50;;;6.60;;
22034;SDS011;11181;51.002;4.356;2023-04-21T10:37:11;7.43;;;6.43;;
22034;SDS011;11181;51.002;4.356;2023-04-21T10:39:44;7.20;;;6.13;;
22034;SDS011;11181;51.002;4.356;2023-04-21T10:42:23;6.30;;;5.57;;
22034;SDS011;11181;51.002;4.356;2023-04-21T10:45:07;7.50;;;5.50;;
22034;SDS011;11181;51.002;4.356;2023-04-21T10:47:37;7.67;;;6.57;;
22034;SDS011;11181;51.002;4.356;2023-04-21T10:50:11;7.00;;;5.77;;
22034;SDS011;11181;51.002;4.356;2023-04-21T10:52:42;6.63;;;6.03;;
22034;SDS011;11181;51.002;4.356;2023-04-21T10:55:11;6.10;;;5.50;;
22034;SDS011;11181;51.002;4.356;2023-04-21T10:57:40;6.77;;;5.60;;
22034;SDS011;11181;51.002;4.356;2023-04-21T11:00:09;6.77;;;5.93;;
22034;SDS011;11181;51.002;4.356;2023-04-21T11:02:40;9.17;;;6.60;;
22034;SDS011;11181;51.002;4.356;2023-04-21T11:05:08;6.83;;;6.13;;
22034;SDS011;11181;51.002;4.356;2023-04-21T11:07:35;7.17;;;6.20;;
22034;SDS011;11181;51.002;4.356;2023-04-21T11:10:03;6.20;;;5.60;;
22034;SDS011;11181;51.002;4.356;2023-04-21T11:12:33;7.20;;;6.30;;
22034;SDS011;11181;51.002;4.356;2023-04-21T11:15:04;8.17;;;6.23;;
22034;SDS011;11181;51.002;4.356;2023-04-21T11:17:33;5.17;;;4.60;;
22034;SDS011;11181;51.002;4.356;2023-04-21T11:20:00;6.33;;;5.37;;
22034;SDS011;11181;51.002;4.356;2023-04-21T11:22:30;6.93;;;5.67;;
22034;SDS011;11181;51.002;4.356;2023-04-21T11:24:57;5.27;;;4.77;;
22034;SDS011;11181;51.002;4.356;2023-04-21T11:27:25;8.03;;;6.00;;
22034;SDS011;11181;51.002;4.356;2023-04-21T11:29:55;6.03;;;5.30;;
22034;SDS011;11181;51.002;4.356;2023-04-21T11:32:22;7.40;;;5.30;;
22034;SDS011;11181;51.002;4.356;2023-04-21T11:34:49;8.23;;;5.93;;
22034;SDS011;11181;51.002;4.356;2023-04-21T11:37:21;8.63;;;6.47;;
22034;SDS011;11181;51.002;4.356;2023-04-21T11:39:55;5.37;;;4.80;;
22034;SDS011;11181;51.002;4.356;2023-04-21T11:42:23;7.80;;;5.13;;
22034;SDS011;11181;51.002;4.356;2023-04-21T11:44:52;6.60;;;5.27;;
22034;SDS011;11181;51.002;4.356;2023-04-21T11:47:22;7.10;;;6.13;;
22034;SDS011;11181;51.002;4.356;2023-04-21T11:49:51;8.40;;;7.40;;
22034;SDS011;11181;51.002;4.356;2023-04-21T11:52:21;9.07;;;8.17;;
22034;SDS011;11181;51.002;4.356;2023-04-21T11:54:53;8.87;;;7.97;;
22034;SDS011;11181;51.002;4.356;2023-04-21T11:57:22;11.40;;;8.20;;
22034;SDS011;11181;51.002;4.356;2023-04-21T11:59:50;7.63;;;6.83;;
22034;SDS011;11181;51.002;4.356;2023-04-21T12:02:22;11.00;;;8.23;;
22034;SDS011;11181;51.002;4.356;2023-04-21T12:05:00;13.40;;;8.37;;
22034;SDS011;11181;51.002;4.356;2023-04-21T12:07:31;10.93;;;8.07;;
22034;SDS011;11181;51.002;4.356;2023-04-21T12:09:58;7.80;;;7.00;;
22034;SDS011;11181;51.002;4.356;2023-04-21T12:12:25;9.43;;;8.50;;
22034;SDS011;11181;51.002;4.356;2023-04-21T12:14:53;9.73;;;8.07;;
22034;SDS011;11181;51.002;4.356;2023-04-21T12:17:21;9.17;;;8.17;;
22034;SDS011;11181;51.002;4.356;2023-04-21T12:19:48;11.53;;;8.90;;
22034;SDS011;11181;51.002;4.356;2023-04-21T12:22:15;11.73;;;9.40;;
22034;SDS011;11181;51.002;4.356;2023-04-21T12:24:43;11.25;;;9.55;;
22034;SDS011;11181;51.002;4.356;2023-04-21T12:27:11;10.93;;;9.38;;
22034;SDS011;11181;51.002;4.356;2023-04-21T12:29:38;11.15;;;8.98;;
22034;SDS011;11181;51.002;4.356;2023-04-21T12:32:06;9.63;;;8.55;;
22034;SDS011;11181;51.002;4.356;2023-04-21T12:34:35;8.65;;;7.75;;
22034;SDS011;11181;51.002;4.356;2023-04-21T12:37:02;10.98;;;9.23;;
22034;SDS011;11181;51.002;4.356;2023-04-21T12:39:30;10.88;;;9.20;;
22034;SDS011;11181;51.002;4.356;2023-04-21T12:41:57;9.20;;;8.30;;
22034;SDS011;11181;51.002;4.356;2023-04-21T12:44:24;10.20;;;9.07;;
22034;SDS011;11181;51.002;4.356;2023-04-21T12:46:51;11.60;;;9.90;;
22034;SDS011;11181;51.002;4.356;2023-04-21T12:49:18;10.67;;;9.57;;
22034;SDS011;11181;51.002;4.356;2023-04-21T12:51:47;10.97;;;9.20;;
22034;SDS011;11181;51.002;4.356;2023-04-21T12:54:14;12.03;;;8.47;;
22034;SDS011;11181;51.002;4.356;2023-04-21T12:56:41;10.20;;;8.93;;
22034;SDS011;11181;51.002;4.356;2023-04-21T12:59:08;12.33;;;8.60;;
22034;SDS011;11181;51.002;4.356;2023-04-21T13:01:36;10.20;;;9.07;;
22034;SDS011;11181;51.002;4.356;2023-04-21T13:04:04;10.57;;;8.13;;
22034;SDS011;11181;51.002;4.356;2023-04-21T13:06:31;9.10;;;7.73;;
22034;SDS011;11181;51.002;4.356;2023-04-21T13:08:59;9.57;;;8.53;;
22034;SDS011;11181;51.002;4.356;2023-04-21T13:11:27;9.43;;;8.40;;
22034;SDS011;11181;51.002;4.356;2023-04-21T13:13:54;10.13;;;8.30;;
22034;SDS011;11181;51.002;4.356;2023-04-21T13:16:21;9.18;;;6.95;;
22034;SDS011;11181;51.002;4.356;2023-04-21T13:18:48;7.65;;;6.82;;
22034;SDS011;11181;51.002;4.356;2023-04-21T13:21:15;7.95;;;6.10;;
22034;SDS011;11181;51.002;4.356;2023-04-21T13:23:42;7.72;;;6.47;;
22034;SDS011;11181;51.002;4.356;2023-04-21T13:26:10;7.15;;;6.45;;
22034;SDS011;11181;51.002;4.356;2023-04-21T13:28:37;9.65;;;6.85;;
22034;SDS011;11181;51.002;4.356;2023-04-21T13:31:04;6.22;;;5.05;;
22034;SDS011;11181;51.002;4.356;2023-04-21T13:33:32;6.75;;;5.45;;
22034;SDS011;11181;51.002;4.356;2023-04-21T13:35:59;5.78;;;5.03;;
22034;SDS011;11181;51.002;4.356;2023-04-21T13:38:27;6.28;;;4.10;;
22034;SDS011;11181;51.002;4.356;2023-04-21T13:40:54;6.22;;;4.55;;
22034;SDS011;11181;51.002;4.356;2023-04-21T13:43:22;4.78;;;4.10;;
22034;SDS011;11181;51.002;4.356;2023-04-21T13:45:49;5.90;;;4.33;;
22034;SDS011;11181;51.002;4.356;2023-04-21T13:48:17;6.37;;;5.07;;
22034;SDS011;11181;51.002;4.356;2023-04-21T13:50:45;6.33;;;4.37;;
22034;SDS011;11181;51.002;4.356;2023-04-21T13:53:12;5.63;;;4.60;;
22034;SDS011;11181;51.002;4.356;2023-04-21T13:55:40;5.97;;;4.40;;
22034;SDS011;11181;51.002;4.356;2023-04-21T13:58:07;4.20;;;3.80;;
22034;SDS011;11181;51.002;4.356;2023-04-21T14:00:36;3.80;;;3.23;;
22034;SDS011;11181;51.002;4.356;2023-04-21T14:03:03;4.80;;;3.37;;
22034;SDS011;11181;51.002;4.356;2023-04-21T14:05:30;4.10;;;3.70;;
22034;SDS011;11181;51.002;4.356;2023-04-21T14:07:57;4.20;;;2.97;;
22034;SDS011;11181;51.002;4.356;2023-04-21T14:10:24;3.40;;;2.90;;
22034;SDS011;11181;51.002;4.356;2023-04-21T14:12:51;3.53;;;2.83;;
22034;SDS011;11181;51.002;4.356;2023-04-21T14:15:18;3.40;;;2.77;;
22034;SDS011;11181;51.002;4.356;2023-04-21T14:17:47;3.47;;;2.70;;
22034;SDS011;11181;51.002;4.356;2023-04-21T14:20:13;2.93;;;2.50;;
22034;SDS011;11181;51.002;4.356;2023-04-21T14:22:40;4.80;;;3.40;;
22034;SDS011;11181;51.002;4.356;2023-04-21T14:25:07;3.43;;;3.10;;
22034;SDS011;11181;51.002;4.356;2023-04-21T14:27:34;3.13;;;2.80;;
22034;SDS011;11181;51.002;4.356;2023-04-21T14:30:02;3.23;;;2.60;;
22034;SDS011;11181;51.002;4.356;2023-04-21T14:32:29;3.40;;;2.80;;
22034;SDS011;11181;51.002;4.356;2023-04-21T14:34:57;4.37;;;3.83;;
22034;SDS011;11181;51.002;4.356;2023-04-21T14:37:27;4.70;;;2.80;;